sensor_id;sensor_type;location;lat;lon;timestamp;pressure;altitude;pressure_sealevel;temperature;humidity
57094;BME280;42970;50.996;3.706;2023-05-09T00:00:10;47179.91;;;-146.65;73.21
57094;BME280;42970;50.996;3.706;2023-05-09T00:02:37;47179.91;;;-146.65;72.48
57094;BME280;42970;50.996;3.706;2023-05-09T00:05:04;47179.91;;;-146.65;73.29
57094;BME280;42970;50.996;3.706;2023-05-09T00:07:30;47177.91;;;-146.65;73.17
57094;BME280;42970;50.996;3.706;2023-05-09T00:09:59;47177.91;;;-146.65;72.74
57094;BME280;42970;50.996;3.706;2023-05-09T00:12:26;47175.91;;;-146.65;72.57
57094;BME280;42970;50.996;3.706;2023-05-09T00:14:53;47173.91;;;-146.65;72.38
57094;BME280;42970;50.996;3.706;2023-05-09T00:17:23;47173.91;;;-146.65;73.71
57094;BME280;42970;50.996;3.706;2023-05-09T00:19:50;47175.91;;;-146.65;75.01
57094;BME280;42970;50.996;3.706;2023-05-09T00:22:16;47173.91;;;-146.65;73.70
57094;BME280;42970;50.996;3.706;2023-05-09T00:24:42;47173.91;;;-146.65;73.13
57094;BME280;42970;50.996;3.706;2023-05-09T00:27:07;47173.91;;;-146.65;72.65
57094;BME280;42970;50.996;3.706;2023-05-09T00:29:34;47173.91;;;-146.65;74.97
57094;BME280;42970;50.996;3.706;2023-05-09T00:31:59;47171.91;;;-146.65;75.47
57094;BME280;42970;50.996;3.706;2023-05-09T00:34:25;47175.91;;;-146.65;75.11
57094;BME280;42970;50.996;3.706;2023-05-09T00:36:50;47179.91;;;-146.65;76.18
57094;BME280;42970;50.996;3.706;2023-05-09T00:39:15;47175.91;;;-146.65;75.38
57094;BME280;42970;50.996;3.706;2023-05-09T00:41:41;47173.91;;;-146.65;75.92
57094;BME280;42970;50.996;3.706;2023-05-09T00:44:07;47179.91;;;-146.65;75.42
57094;BME280;42970;50.996;3.706;2023-05-09T00:46:32;47175.91;;;-146.65;76.22
57094;BME280;42970;50.996;3.706;2023-05-09T00:48:58;47175.91;;;-146.65;76.34
57094;BME280;42970;50.996;3.706;2023-05-09T00:51:24;47175.91;;;-146.65;76.62
57094;BME280;42970;50.996;3.706;2023-05-09T00:53:50;47171.91;;;-146.65;77.19
57094;BME280;42970;50.996;3.706;2023-05-09T00:56:16;47175.91;;;-146.65;77.64
57094;BME280;42970;50.996;3.706;2023-05-09T00:58:41;47173.91;;;-146.65;77.24
57094;BME280;42970;50.996;3.706;2023-05-09T01:01:07;47171.91;;;-146.65;77.20
57094;BME280;42970;50.996;3.706;2023-05-09T01:03:34;47177.91;;;-146.65;76.46
57094;BME280;42970;50.996;3.706;2023-05-09T01:06:12;47177.91;;;-146.65;76.65
57094;BME280;42970;50.996;3.706;2023-05-09T01:15:09;47173.91;;;-146.65;76.95
57094;BME280;42970;50.996;3.706;2023-05-09T01:18:02;47175.91;;;-146.65;77.01
57094;BME280;42970;50.996;3.706;2023-05-09T01:21:00;47175.91;;;-146.65;77.55
57094;BME280;42970;50.996;3.706;2023-05-09T01:26:03;47177.91;;;-146.65;77.23
57094;BME280;42970;50.996;3.706;2023-05-09T01:31:37;47177.91;;;-146.65;77.35
57094;BME280;42970;50.996;3.706;2023-05-09T01:34:06;47175.91;;;-146.65;77.50
57094;BME280;42970;50.996;3.706;2023-05-09T01:36:33;47173.91;;;-146.65;77.05
57094;BME280;42970;50.996;3.706;2023-05-09T01:39:03;47173.91;;;-146.65;77.46
57094;BME280;42970;50.996;3.706;2023-05-09T01:41:30;47173.91;;;-146.65;76.50
57094;BME280;42970;50.996;3.706;2023-05-09T01:43:58;47173.91;;;-146.65;76.52
57094;BME280;42970;50.996;3.706;2023-05-09T01:46:26;47171.91;;;-146.65;77.20
57094;BME280;42970;50.996;3.706;2023-05-09T01:48:53;47171.91;;;-146.65;76.70
57094;BME280;42970;50.996;3.706;2023-05-09T01:51:20;47175.91;;;-146.65;76.99
57094;BME280;42970;50.996;3.706;2023-05-09T01:53:47;47177.91;;;-146.65;76.72
57094;BME280;42970;50.996;3.706;2023-05-09T01:56:13;47173.91;;;-146.65;76.70
57094;BME280;42970;50.996;3.706;2023-05-09T01:58:40;47173.91;;;-146.65;76.32
57094;BME280;42970;50.996;3.706;2023-05-09T02:01:07;47173.91;;;-146.65;76.54
57094;BME280;42970;50.996;3.706;2023-05-09T02:03:33;47173.91;;;-146.65;77.10
57094;BME280;42970;50.996;3.706;2023-05-09T02:06:02;47173.91;;;-146.65;76.72
57094;BME280;42970;50.996;3.706;2023-05-09T02:08:29;47177.91;;;-146.65;75.95
57094;BME280;42970;50.996;3.706;2023-05-09T02:10:55;47177.91;;;-146.65;75.88
57094;BME280;42970;50.996;3.706;2023-05-09T02:13:21;47175.91;;;-146.65;76.17
57094;BME280;42970;50.996;3.706;2023-05-09T02:15:46;47173.91;;;-146.65;76.68
57094;BME280;42970;50.996;3.706;2023-05-09T02:18:12;47175.91;;;-146.65;76.46
57094;BME280;42970;50.996;3.706;2023-05-09T02:20:38;47173.91;;;-146.65;76.22
57094;BME280;42970;50.996;3.706;2023-05-09T02:23:04;47171.91;;;-146.65;76.49
57094;BME280;42970;50.996;3.706;2023-05-09T02:25:31;47173.91;;;-146.65;76.06
57094;BME280;42970;50.996;3.706;2023-05-09T02:27:58;47177.91;;;-146.65;75.91
57094;BME280;42970;50.996;3.706;2023-05-09T02:30:25;47175.91;;;-146.65;76.47
57094;BME280;42970;50.996;3.706;2023-05-09T02:32:55;47177.91;;;-146.65;76.47
57094;BME280;42970;50.996;3.706;2023-05-09T02:35:25;47175.91;;;-146.65;76.88
57094;BME280;42970;50.996;3.706;2023-05-09T02:37:52;47173.91;;;-146.65;77.13
57094;BME280;42970;50.996;3.706;2023-05-09T02:40:19;47177.91;;;-146.65;77.06
57094;BME280;42970;50.996;3.706;2023-05-09T02:42:44;47173.91;;;-146.65;76.73
57094;BME280;42970;50.996;3.706;2023-05-09T02:45:10;47171.91;;;-146.65;76.47
57094;BME280;42970;50.996;3.706;2023-05-09T02:47:36;47175.91;;;-146.65;76.18
57094;BME280;42970;50.996;3.706;2023-05-09T02:50:02;47173.91;;;-146.65;76.76
57094;BME280;42970;50.996;3.706;2023-05-09T02:52:28;47175.91;;;-146.65;76.73
57094;BME280;42970;50.996;3.706;2023-05-09T02:54:53;47175.91;;;-146.65;75.99
57094;BME280;42970;50.996;3.706;2023-05-09T02:57:19;47171.91;;;-146.65;76.22
57094;BME280;42970;50.996;3.706;2023-05-09T02:59:45;47175.91;;;-146.65;76.45
57094;BME280;42970;50.996;3.706;2023-05-09T03:02:10;47171.91;;;-146.65;76.26
57094;BME280;42970;50.996;3.706;2023-05-09T03:04:36;47177.91;;;-146.65;76.83
57094;BME280;42970;50.996;3.706;2023-05-09T03:07:02;47175.91;;;-146.65;77.62
57094;BME280;42970;50.996;3.706;2023-05-09T03:09:27;47173.91;;;-146.65;78.71
57094;BME280;42970;50.996;3.706;2023-05-09T03:11:54;47173.91;;;-146.65;79.32
57094;BME280;42970;50.996;3.706;2023-05-09T03:14:20;47175.91;;;-146.65;79.42
57094;BME280;42970;50.996;3.706;2023-05-09T03:16:45;47173.91;;;-146.65;80.36
57094;BME280;42970;50.996;3.706;2023-05-09T03:19:11;47175.91;;;-146.65;80.29
57094;BME280;42970;50.996;3.706;2023-05-09T03:21:36;47173.91;;;-146.65;80.87
57094;BME280;42970;50.996;3.706;2023-05-09T03:24:02;47173.91;;;-146.65;80.93
57094;BME280;42970;50.996;3.706;2023-05-09T03:26:29;47175.91;;;-146.65;80.46
57094;BME280;42970;50.996;3.706;2023-05-09T03:28:55;47169.91;;;-146.65;81.01
57094;BME280;42970;50.996;3.706;2023-05-09T03:31:20;47173.91;;;-146.65;81.11
57094;BME280;42970;50.996;3.706;2023-05-09T03:33:46;47173.91;;;-146.65;81.10
57094;BME280;42970;50.996;3.706;2023-05-09T03:36:11;47175.91;;;-146.65;80.36
57094;BME280;42970;50.996;3.706;2023-05-09T03:38:37;47175.91;;;-146.65;80.31
57094;BME280;42970;50.996;3.706;2023-05-09T03:41:02;47175.91;;;-146.65;79.46
57094;BME280;42970;50.996;3.706;2023-05-09T03:43:28;47179.91;;;-146.65;79.91
57094;BME280;42970;50.996;3.706;2023-05-09T03:45:54;47175.91;;;-146.65;80.57
57094;BME280;42970;50.996;3.706;2023-05-09T03:48:19;47175.91;;;-146.65;80.52
57094;BME280;42970;50.996;3.706;2023-05-09T03:50:44;47177.91;;;-146.65;81.05
57094;BME280;42970;50.996;3.706;2023-05-09T03:53:10;47175.91;;;-146.65;80.42
57094;BME280;42970;50.996;3.706;2023-05-09T03:55:35;47177.91;;;-146.65;80.48
57094;BME280;42970;50.996;3.706;2023-05-09T03:58:02;47175.91;;;-146.65;79.80
57094;BME280;42970;50.996;3.706;2023-05-09T04:00:28;47177.91;;;-146.65;79.30
57094;BME280;42970;50.996;3.706;2023-05-09T04:02:54;47173.91;;;-146.65;79.50
57094;BME280;42970;50.996;3.706;2023-05-09T04:05:20;47173.91;;;-146.65;79.27
57094;BME280;42970;50.996;3.706;2023-05-09T04:07:45;47177.91;;;-146.65;79.01
57094;BME280;42970;50.996;3.706;2023-05-09T04:10:11;47175.91;;;-146.65;78.86
57094;BME280;42970;50.996;3.706;2023-05-09T04:12:36;47179.91;;;-146.65;78.73
57094;BME280;42970;50.996;3.706;2023-05-09T04:15:02;47175.91;;;-146.65;79.04
57094;BME280;42970;50.996;3.706;2023-05-09T04:17:28;47171.91;;;-146.65;79.22
57094;BME280;42970;50.996;3.706;2023-05-09T04:19:53;47179.91;;;-146.65;79.16
57094;BME280;42970;50.996;3.706;2023-05-09T04:22:19;47175.91;;;-146.65;78.95
57094;BME280;42970;50.996;3.706;2023-05-09T04:24:44;47177.91;;;-146.65;79.45
57094;BME280;42970;50.996;3.706;2023-05-09T04:27:10;47175.91;;;-146.65;78.84
57094;BME280;42970;50.996;3.706;2023-05-09T04:29:36;47175.91;;;-146.65;78.69
57094;BME280;42970;50.996;3.706;2023-05-09T04:32:02;47169.91;;;-146.65;78.82
57094;BME280;42970;50.996;3.706;2023-05-09T04:34:29;47175.91;;;-146.65;80.23
57094;BME280;42970;50.996;3.706;2023-05-09T04:36:55;47177.91;;;-146.65;81.11
57094;BME280;42970;50.996;3.706;2023-05-09T04:39:21;47175.91;;;-146.65;80.58
57094;BME280;42970;50.996;3.706;2023-05-09T04:41:46;47173.91;;;-146.65;81.34
57094;BME280;42970;50.996;3.706;2023-05-09T04:44:14;47173.91;;;-146.65;81.45
57094;BME280;42970;50.996;3.706;2023-05-09T04:46:40;47175.91;;;-146.65;81.76
57094;BME280;42970;50.996;3.706;2023-05-09T04:49:05;47175.91;;;-146.65;81.70
57094;BME280;42970;50.996;3.706;2023-05-09T04:51:30;47177.91;;;-146.65;81.38
57094;BME280;42970;50.996;3.706;2023-05-09T04:53:56;47175.91;;;-146.65;82.33
57094;BME280;42970;50.996;3.706;2023-05-09T04:56:22;47173.91;;;-146.65;82.29
57094;BME280;42970;50.996;3.706;2023-05-09T04:58:47;47177.91;;;-146.65;83.09
57094;BME280;42970;50.996;3.706;2023-05-09T05:01:13;47175.91;;;-146.65;82.47
57094;BME280;42970;50.996;3.706;2023-05-09T05:03:38;47175.91;;;-146.65;82.48
57094;BME280;42970;50.996;3.706;2023-05-09T05:06:04;47171.91;;;-146.65;82.68
57094;BME280;42970;50.996;3.706;2023-05-09T05:08:29;47173.91;;;-146.65;82.63
57094;BME280;42970;50.996;3.706;2023-05-09T05:10:55;47177.91;;;-146.65;82.65
57094;BME280;42970;50.996;3.706;2023-05-09T05:13:20;47173.91;;;-146.65;83.27
57094;BME280;42970;50.996;3.706;2023-05-09T05:15:46;47173.91;;;-146.65;83.10
57094;BME280;42970;50.996;3.706;2023-05-09T05:18:11;47177.91;;;-146.65;82.26
57094;BME280;42970;50.996;3.706;2023-05-09T05:20:39;47173.91;;;-146.65;83.05
57094;BME280;42970;50.996;3.706;2023-05-09T05:23:06;47179.91;;;-146.65;83.30
57094;BME280;42970;50.996;3.706;2023-05-09T05:25:31;47173.91;;;-146.65;83.51
57094;BME280;42970;50.996;3.706;2023-05-09T05:27:56;47175.91;;;-146.65;84.09
57094;BME280;42970;50.996;3.706;2023-05-09T05:30:22;47171.91;;;-146.65;84.11
57094;BME280;42970;50.996;3.706;2023-05-09T05:32:47;47177.91;;;-146.65;84.24
57094;BME280;42970;50.996;3.706;2023-05-09T05:35:13;47173.91;;;-146.65;84.17
57094;BME280;42970;50.996;3.706;2023-05-09T05:37:39;47171.91;;;-146.65;84.60
57094;BME280;42970;50.996;3.706;2023-05-09T05:40:05;47175.91;;;-146.65;83.87
57094;BME280;42970;50.996;3.706;2023-05-09T05:42:31;47175.91;;;-146.65;83.33
57094;BME280;42970;50.996;3.706;2023-05-09T05:44:57;47175.91;;;-146.65;82.90
57094;BME280;42970;50.996;3.706;2023-05-09T05:47:32;47177.91;;;-146.65;83.69
57094;BME280;42970;50.996;3.706;2023-05-09T05:50:01;47173.91;;;-146.65;83.20
57094;BME280;42970;50.996;3.706;2023-05-09T05:52:27;47173.91;;;-146.65;82.97
57094;BME280;42970;50.996;3.706;2023-05-09T05:54:53;47175.91;;;-146.65;83.03
57094;BME280;42970;50.996;3.706;2023-05-09T05:57:19;47175.91;;;-146.65;83.98
57094;BME280;42970;50.996;3.706;2023-05-09T05:59:49;47177.91;;;-146.65;84.13
57094;BME280;42970;50.996;3.706;2023-05-09T06:02:16;47177.91;;;-146.65;83.64
57094;BME280;42970;50.996;3.706;2023-05-09T06:04:42;47175.91;;;-146.65;84.44
57094;BME280;42970;50.996;3.706;2023-05-09T06:07:07;47175.91;;;-146.65;84.23
57094;BME280;42970;50.996;3.706;2023-05-09T06:09:33;47171.91;;;-146.65;83.60
57094;BME280;42970;50.996;3.706;2023-05-09T06:11:59;47175.91;;;-146.65;83.72
57094;BME280;42970;50.996;3.706;2023-05-09T06:14:24;47179.91;;;-146.65;83.78
57094;BME280;42970;50.996;3.706;2023-05-09T06:16:50;47177.91;;;-146.65;84.36
57094;BME280;42970;50.996;3.706;2023-05-09T06:19:16;47179.91;;;-146.65;83.86
57094;BME280;42970;50.996;3.706;2023-05-09T06:21:41;47175.91;;;-146.65;84.52
57094;BME280;42970;50.996;3.706;2023-05-09T06:24:07;47179.91;;;-146.65;84.83
57094;BME280;42970;50.996;3.706;2023-05-09T06:26:32;47175.91;;;-146.65;84.01
57094;BME280;42970;50.996;3.706;2023-05-09T06:28:58;47171.91;;;-146.65;83.67
57094;BME280;42970;50.996;3.706;2023-05-09T06:31:23;47177.91;;;-146.65;83.98
57094;BME280;42970;50.996;3.706;2023-05-09T06:33:49;47177.91;;;-146.65;84.27
57094;BME280;42970;50.996;3.706;2023-05-09T06:36:14;47183.91;;;-146.65;84.74
57094;BME280;42970;50.996;3.706;2023-05-09T06:38:40;47173.91;;;-146.65;84.34
57094;BME280;42970;50.996;3.706;2023-05-09T06:41:05;47179.91;;;-146.65;84.21
57094;BME280;42970;50.996;3.706;2023-05-09T06:43:31;47177.91;;;-146.65;84.51
57094;BME280;42970;50.996;3.706;2023-05-09T06:45:56;47179.91;;;-146.65;84.58
57094;BME280;42970;50.996;3.706;2023-05-09T06:48:21;47173.91;;;-146.65;84.24
57094;BME280;42970;50.996;3.706;2023-05-09T06:50:48;47173.91;;;-146.65;84.56
57094;BME280;42970;50.996;3.706;2023-05-09T06:53:14;47175.91;;;-146.65;83.66
57094;BME280;42970;50.996;3.706;2023-05-09T06:55:39;47173.91;;;-146.65;84.89
57094;BME280;42970;50.996;3.706;2023-05-09T06:58:05;47179.91;;;-146.65;84.16
57094;BME280;42970;50.996;3.706;2023-05-09T07:00:30;47177.91;;;-146.65;83.92
57094;BME280;42970;50.996;3.706;2023-05-09T07:02:56;47173.91;;;-146.65;83.43
57094;BME280;42970;50.996;3.706;2023-05-09T07:05:21;47175.91;;;-146.65;83.82
57094;BME280;42970;50.996;3.706;2023-05-09T07:07:47;47177.91;;;-146.65;83.71
57094;BME280;42970;50.996;3.706;2023-05-09T07:10:12;47177.91;;;-146.65;84.52
57094;BME280;42970;50.996;3.706;2023-05-09T07:12:38;47175.91;;;-146.65;84.76
57094;BME280;42970;50.996;3.706;2023-05-09T07:15:04;47175.91;;;-146.65;84.36
57094;BME280;42970;50.996;3.706;2023-05-09T07:17:30;47183.91;;;-146.65;85.28
57094;BME280;42970;50.996;3.706;2023-05-09T07:19:55;47177.91;;;-146.65;85.54
57094;BME280;42970;50.996;3.706;2023-05-09T07:22:21;47175.91;;;-146.65;85.36
57094;BME280;42970;50.996;3.706;2023-05-09T07:24:46;47175.91;;;-146.65;85.55
57094;BME280;42970;50.996;3.706;2023-05-09T07:27:12;47175.91;;;-146.65;85.80
57094;BME280;42970;50.996;3.706;2023-05-09T07:29:37;47177.91;;;-146.65;85.28
57094;BME280;42970;50.996;3.706;2023-05-09T07:32:03;47175.91;;;-146.65;85.30
57094;BME280;42970;50.996;3.706;2023-05-09T07:34:28;47175.91;;;-146.65;85.65
57094;BME280;42970;50.996;3.706;2023-05-09T07:36:54;47177.91;;;-146.65;86.66
57094;BME280;42970;50.996;3.706;2023-05-09T07:39:19;47177.91;;;-146.65;86.16
57094;BME280;42970;50.996;3.706;2023-05-09T07:41:45;47173.91;;;-146.65;86.39
57094;BME280;42970;50.996;3.706;2023-05-09T07:44:10;47177.91;;;-146.65;85.80
57094;BME280;42970;50.996;3.706;2023-05-09T07:46:36;47173.91;;;-146.65;85.70
57094;BME280;42970;50.996;3.706;2023-05-09T07:49:02;47175.91;;;-146.65;86.23
57094;BME280;42970;50.996;3.706;2023-05-09T07:51:28;47173.91;;;-146.65;86.23
57094;BME280;42970;50.996;3.706;2023-05-09T07:53:53;47177.91;;;-146.65;86.76
57094;BME280;42970;50.996;3.706;2023-05-09T07:56:22;47171.91;;;-146.65;87.36
57094;BME280;42970;50.996;3.706;2023-05-09T07:58:47;47177.91;;;-146.65;87.09
57094;BME280;42970;50.996;3.706;2023-05-09T08:01:13;47175.91;;;-146.65;86.62
57094;BME280;42970;50.996;3.706;2023-05-09T08:03:38;47175.91;;;-146.65;86.86
57094;BME280;42970;50.996;3.706;2023-05-09T08:06:04;47173.91;;;-146.65;86.86
57094;BME280;42970;50.996;3.706;2023-05-09T08:08:29;47175.91;;;-146.65;86.86
57094;BME280;42970;50.996;3.706;2023-05-09T08:10:55;47173.91;;;-146.65;87.54
57094;BME280;42970;50.996;3.706;2023-05-09T08:13:20;47177.91;;;-146.65;87.87
57094;BME280;42970;50.996;3.706;2023-05-09T08:15:47;47173.91;;;-146.65;87.18
57094;BME280;42970;50.996;3.706;2023-05-09T08:18:12;47173.91;;;-146.65;86.38
57094;BME280;42970;50.996;3.706;2023-05-09T08:20:38;47177.91;;;-146.65;85.80
57094;BME280;42970;50.996;3.706;2023-05-09T08:23:04;47173.91;;;-146.65;86.47
57094;BME280;42970;50.996;3.706;2023-05-09T08:25:30;47175.91;;;-146.65;87.32
57094;BME280;42970;50.996;3.706;2023-05-09T08:27:55;47179.91;;;-146.65;86.42
57094;BME280;42970;50.996;3.706;2023-05-09T08:30:21;47175.91;;;-146.65;86.99
57094;BME280;42970;50.996;3.706;2023-05-09T08:32:46;47175.91;;;-146.65;86.61
57094;BME280;42970;50.996;3.706;2023-05-09T08:35:11;47175.91;;;-146.65;87.56
57094;BME280;42970;50.996;3.706;2023-05-09T08:37:37;47175.91;;;-146.65;86.86
57094;BME280;42970;50.996;3.706;2023-05-09T08:40:02;47175.91;;;-146.65;86.84
57094;BME280;42970;50.996;3.706;2023-05-09T08:42:29;47173.91;;;-146.65;86.98
57094;BME280;42970;50.996;3.706;2023-05-09T08:44:56;47173.91;;;-146.65;87.05
57094;BME280;42970;50.996;3.706;2023-05-09T08:47:21;47175.91;;;-146.65;87.71
57094;BME280;42970;50.996;3.706;2023-05-09T08:49:46;47179.91;;;-146.65;87.07
57094;BME280;42970;50.996;3.706;2023-05-09T08:52:13;47177.91;;;-146.65;86.86
57094;BME280;42970;50.996;3.706;2023-05-09T08:54:39;47171.91;;;-146.65;85.55
57094;BME280;42970;50.996;3.706;2023-05-09T08:57:04;47175.91;;;-146.65;86.15
57094;BME280;42970;50.996;3.706;2023-05-09T08:59:30;47175.91;;;-146.65;85.81
57094;BME280;42970;50.996;3.706;2023-05-09T09:01:59;47173.91;;;-146.65;85.35
57094;BME280;42970;50.996;3.706;2023-05-09T09:04:24;47181.91;;;-146.65;86.15
57094;BME280;42970;50.996;3.706;2023-05-09T09:06:50;47175.91;;;-146.65;87.21
57094;BME280;42970;50.996;3.706;2023-05-09T09:09:19;47173.91;;;-146.65;86.54
57094;BME280;42970;50.996;3.706;2023-05-09T09:11:44;47173.91;;;-146.65;86.54
57094;BME280;42970;50.996;3.706;2023-05-09T09:14:14;47177.91;;;-146.65;86.42
57094;BME280;42970;50.996;3.706;2023-05-09T09:16:44;47177.91;;;-146.65;87.17
57094;BME280;42970;50.996;3.706;2023-05-09T09:19:12;47173.91;;;-146.65;87.52
57094;BME280;42970;50.996;3.706;2023-05-09T09:21:39;47173.91;;;-146.65;87.22
57094;BME280;42970;50.996;3.706;2023-05-09T09:24:05;47175.91;;;-146.65;87.19
57094;BME280;42970;50.996;3.706;2023-05-09T09:26:31;47177.91;;;-146.65;86.88
57094;BME280;42970;50.996;3.706;2023-05-09T09:28:58;47175.91;;;-146.65;85.83
57094;BME280;42970;50.996;3.706;2023-05-09T09:31:24;47175.91;;;-146.65;85.71
57094;BME280;42970;50.996;3.706;2023-05-09T09:33:50;47171.91;;;-146.65;86.06
57094;BME280;42970;50.996;3.706;2023-05-09T09:36:15;47177.91;;;-146.65;85.78
57094;BME280;42970;50.996;3.706;2023-05-09T09:38:50;47175.91;;;-146.65;86.39
57094;BME280;42970;50.996;3.706;2023-05-09T09:41:15;47175.91;;;-146.65;86.45
57094;BME280;42970;50.996;3.706;2023-05-09T09:43:42;47173.91;;;-146.65;86.14
57094;BME280;42970;50.996;3.706;2023-05-09T09:46:09;47175.91;;;-146.65;86.59
57094;BME280;42970;50.996;3.706;2023-05-09T09:48:34;47177.91;;;-146.65;86.62
57094;BME280;42970;50.996;3.706;2023-05-09T09:51:17;47175.91;;;-146.65;87.49
57094;BME280;42970;50.996;3.706;2023-05-09T09:53:43;47173.91;;;-146.65;86.81
57094;BME280;42970;50.996;3.706;2023-05-09T09:56:08;47175.91;;;-146.65;86.43
57094;BME280;42970;50.996;3.706;2023-05-09T09:58:34;47173.91;;;-146.65;85.94
57094;BME280;42970;50.996;3.706;2023-05-09T10:01:04;47175.91;;;-146.65;85.81
57094;BME280;42970;50.996;3.706;2023-05-09T10:03:39;47181.91;;;-146.65;85.55
57094;BME280;42970;50.996;3.706;2023-05-09T10:06:15;47175.91;;;-146.65;86.15
57094;BME280;42970;50.996;3.706;2023-05-09T10:08:42;47177.91;;;-146.65;86.50
57094;BME280;42970;50.996;3.706;2023-05-09T10:11:07;47175.91;;;-146.65;86.28
57094;BME280;42970;50.996;3.706;2023-05-09T10:13:33;47177.91;;;-146.65;86.49
57094;BME280;42970;50.996;3.706;2023-05-09T10:16:00;47171.91;;;-146.65;86.94
57094;BME280;42970;50.996;3.706;2023-05-09T10:18:26;47175.91;;;-146.65;86.54
57094;BME280;42970;50.996;3.706;2023-05-09T10:20:52;47175.91;;;-146.65;86.87
57094;BME280;42970;50.996;3.706;2023-05-09T10:23:17;47175.91;;;-146.65;87.62
57094;BME280;42970;50.996;3.706;2023-05-09T10:25:46;47179.91;;;-146.65;87.31
57094;BME280;42970;50.996;3.706;2023-05-09T10:28:12;47173.91;;;-146.65;87.27
57094;BME280;42970;50.996;3.706;2023-05-09T10:30:40;47175.91;;;-146.65;87.25
57094;BME280;42970;50.996;3.706;2023-05-09T10:33:09;47177.91;;;-146.65;87.10
57094;BME280;42970;50.996;3.706;2023-05-09T10:35:36;47177.91;;;-146.65;86.79
57094;BME280;42970;50.996;3.706;2023-05-09T10:38:01;47175.91;;;-146.65;86.86
57094;BME280;42970;50.996;3.706;2023-05-09T10:40:27;47177.91;;;-146.65;85.83
57094;BME280;42970;50.996;3.706;2023-05-09T10:42:52;47175.91;;;-146.65;86.64
57094;BME280;42970;50.996;3.706;2023-05-09T10:45:18;47173.91;;;-146.65;87.04
57094;BME280;42970;50.996;3.706;2023-05-09T10:47:44;47171.91;;;-146.65;87.40
57094;BME280;42970;50.996;3.706;2023-05-09T10:50:11;47173.91;;;-146.65;86.46
57094;BME280;42970;50.996;3.706;2023-05-09T10:55:21;47173.91;;;-146.65;86.59
57094;BME280;42970;50.996;3.706;2023-05-09T10:57:51;47171.91;;;-146.65;86.40
57094;BME280;42970;50.996;3.706;2023-05-09T11:00:17;47173.91;;;-146.65;86.27
57094;BME280;42970;50.996;3.706;2023-05-09T11:03:06;47171.91;;;-146.65;85.73
57094;BME280;42970;50.996;3.706;2023-05-09T11:05:37;47177.91;;;-146.65;86.59
57094;BME280;42970;50.996;3.706;2023-05-09T11:08:18;47171.91;;;-146.65;85.88
57094;BME280;42970;50.996;3.706;2023-05-09T11:10:43;47177.91;;;-146.65;85.76
57094;BME280;42970;50.996;3.706;2023-05-09T11:13:09;47175.91;;;-146.65;85.32
57094;BME280;42970;50.996;3.706;2023-05-09T11:15:35;47175.91;;;-146.65;85.17
57094;BME280;42970;50.996;3.706;2023-05-09T11:18:07;47175.91;;;-146.65;85.31
57094;BME280;42970;50.996;3.706;2023-05-09T11:20:33;47175.91;;;-146.65;85.25
57094;BME280;42970;50.996;3.706;2023-05-09T11:22:59;47177.91;;;-146.65;84.82
57094;BME280;42970;50.996;3.706;2023-05-09T11:25:25;47175.91;;;-146.65;84.73
57094;BME280;42970;50.996;3.706;2023-05-09T11:27:56;47171.91;;;-146.65;84.95
57094;BME280;42970;50.996;3.706;2023-05-09T11:30:22;47175.91;;;-146.65;85.65
57094;BME280;42970;50.996;3.706;2023-05-09T11:35:16;47177.91;;;-146.65;85.57
57094;BME280;42970;50.996;3.706;2023-05-09T11:40:11;47179.91;;;-146.65;86.80
57094;BME280;42970;50.996;3.706;2023-05-09T11:42:37;47175.91;;;-146.65;87.10
57094;BME280;42970;50.996;3.706;2023-05-09T11:45:05;47173.91;;;-146.65;87.12
57094;BME280;42970;50.996;3.706;2023-05-09T11:47:31;47175.91;;;-146.65;87.36
57094;BME280;42970;50.996;3.706;2023-05-09T11:49:56;47173.91;;;-146.65;87.12
57094;BME280;42970;50.996;3.706;2023-05-09T11:52:22;47177.91;;;-146.65;86.32
57094;BME280;42970;50.996;3.706;2023-05-09T11:54:47;47175.91;;;-146.65;86.33
57094;BME280;42970;50.996;3.706;2023-05-09T11:57:14;47175.91;;;-146.65;86.96
57094;BME280;42970;50.996;3.706;2023-05-09T11:59:43;47175.91;;;-146.65;86.17
57094;BME280;42970;50.996;3.706;2023-05-09T12:02:11;47171.91;;;-146.65;85.95
57094;BME280;42970;50.996;3.706;2023-05-09T12:04:37;47173.91;;;-146.65;87.05
57094;BME280;42970;50.996;3.706;2023-05-09T12:07:02;47175.91;;;-146.65;87.22
57094;BME280;42970;50.996;3.706;2023-05-09T12:09:28;47175.91;;;-146.65;87.15
57094;BME280;42970;50.996;3.706;2023-05-09T12:11:55;47175.91;;;-146.65;86.80
57094;BME280;42970;50.996;3.706;2023-05-09T12:14:27;47173.91;;;-146.65;85.99
57094;BME280;42970;50.996;3.706;2023-05-09T12:16:52;47171.91;;;-146.65;86.76
57094;BME280;42970;50.996;3.706;2023-05-09T12:19:18;47175.91;;;-146.65;86.87
57094;BME280;42970;50.996;3.706;2023-05-09T12:21:43;47175.91;;;-146.65;86.21
57094;BME280;42970;50.996;3.706;2023-05-09T12:24:08;47173.91;;;-146.65;86.35
57094;BME280;42970;50.996;3.706;2023-05-09T12:26:34;47173.91;;;-146.65;87.00
57094;BME280;42970;50.996;3.706;2023-05-09T12:28:59;47177.91;;;-146.65;86.75
57094;BME280;42970;50.996;3.706;2023-05-09T12:31:25;47169.91;;;-146.65;86.46
57094;BME280;42970;50.996;3.706;2023-05-09T12:33:50;47177.91;;;-146.65;86.87
57094;BME280;42970;50.996;3.706;2023-05-09T12:36:15;47173.91;;;-146.65;86.41
57094;BME280;42970;50.996;3.706;2023-05-09T12:38:52;47179.91;;;-146.65;86.84
57094;BME280;42970;50.996;3.706;2023-05-09T12:41:17;47175.91;;;-146.65;86.08
57094;BME280;42970;50.996;3.706;2023-05-09T12:43:45;47175.91;;;-146.65;86.56
57094;BME280;42970;50.996;3.706;2023-05-09T12:46:11;47173.91;;;-146.65;86.25
57094;BME280;42970;50.996;3.706;2023-05-09T12:48:37;47175.91;;;-146.65;86.11
57094;BME280;42970;50.996;3.706;2023-05-09T12:51:05;47173.91;;;-146.65;85.53
57094;BME280;42970;50.996;3.706;2023-05-09T12:53:34;47175.91;;;-146.65;86.04
57094;BME280;42970;50.996;3.706;2023-05-09T12:56:01;47173.91;;;-146.65;86.40